Time;durP1;ratioP1;P1;durP2;ratioP2;P2;SDS_P1;SDS_P2;PMS_P1;PMS_P2;Temp;Humidity;BMP_temperature;BMP_pressure;BME280_temperature;BME280_humidity;BME280_pressure;Samples;Min_cycle;Max_cycle;Signal;HPM_P1;HPM_P2
2023/03/01 00:01:32;;;;;;;;;;;;;;;21.96;36.19;103000.03;7255218;19;153463;-54
2023/03/01 00:03:59;;;;;;;;;;;;;;;22.00;36.53;103004.03;7254246;19;153289;-55
2023/03/01 00:06:27;;;;;;;;;;;;;;;21.99;36.43;103002.31;7254123;19;153770;-54
2023/03/01 00:08:55;;;;;;;;;;;;;;;21.99;36.34;102999.50;7254919;19;154239;-56
2023/03/01 00:11:23;;;;;;;;;;;;;;;22.00;36.51;102995.56;7256770;19;154096;-54
2023/03/01 00:13:52;;;;;;;;;;;;;;;21.99;36.76;103007.94;7257262;19;155053;-54
2023/03/01 00:16:20;;;;;;;;;;;;;;;21.98;36.66;103006.28;7255035;19;154252;-55
2023/03/01 00:18:47;;;;;;;;;;;;;;;21.96;36.42;103019.75;7251857;19;153442;-55
2023/03/01 00:21:14;;;;;;;;;;;;;;;21.96;36.94;103017.78;7254199;19;154361;-55
2023/03/01 00:23:42;;;;;;;;;;;;;;;21.94;36.85;103022.81;7254045;19;152594;-55
2023/03/01 00:26:10;;;;;;;;;;;;;;;21.92;37.07;103024.19;7254812;19;155563;-55
2023/03/01 00:28:38;;;;;;;;;;;;;;;21.91;36.68;103025.28;7251569;19;152829;-55
2023/03/01 00:31:06;;;;;;;;;;;;;;;21.88;37.21;103020.22;7255795;19;155588;-56
2023/03/01 00:33:33;;;;;;;;;;;;;;;21.89;36.87;103024.72;7260237;19;153753;-56
2023/03/01 00:36:00;;;;;;;;;;;;;;;21.85;36.84;103024.41;7254646;19;153459;-56
2023/03/01 00:38:27;;;;;;;;;;;;;;;21.82;37.31;103019.31;7252071;19;155601;-56
2023/03/01 00:40:57;;;;;;;;;;;;;;;21.81;37.17;103022.38;7253784;19;154410;-56
2023/03/01 00:43:23;;;;;;;;;;;;;;;21.78;37.24;103011.66;7250730;19;153855;-56
2023/03/01 00:45:53;;;;;;;;;;;;;;;21.72;37.17;103016.38;7254186;19;154682;-56
2023/03/01 00:48:20;;;;;;;;;;;;;;;21.70;37.08;103016.69;7258094;19;153726;-56
2023/03/01 00:50:47;;;;;;;;;;;;;;;21.70;37.56;103019.50;7258272;19;152313;-56
2023/03/01 00:53:17;;;;;;;;;;;;;;;21.68;37.27;103010.44;7252824;19;153595;-56
2023/03/01 00:55:44;;;;;;;;;;;;;;;21.66;37.29;103009.88;7260706;19;153810;-56
2023/03/01 00:58:13;;;;;;;;;;;;;;;21.63;37.41;102998.28;7253498;19;153794;-56
2023/03/01 01:00:40;;;;;;;;;;;;;;;21.58;37.79;103001.91;7249472;19;152798;-57
2023/03/01 01:03:07;;;;;;;;;;;;;;;21.56;37.75;103004.16;7254046;19;153373;-56
2023/03/01 01:05:35;;;;;;;;;;;;;;;21.51;37.77;102998.47;7250044;19;154430;-56
2023/03/01 01:08:02;;;;;;;;;;;;;;;21.51;37.99;103004.09;7253577;19;153243;-57
2023/03/01 01:10:29;;;;;;;;;;;;;;;21.48;38.11;103003.78;7253478;19;153483;-56
2023/03/01 01:12:59;;;;;;;;;;;;;;;21.48;38.21;103003.78;7251614;19;153725;-56
2023/03/01 01:15:26;;;;;;;;;;;;;;;21.46;38.21;103006.84;7250156;19;153623;-56
2023/03/01 01:17:53;;;;;;;;;;;;;;;21.43;37.72;103004.56;7260329;19;153784;-55
2023/03/01 01:20:20;;;;;;;;;;;;;;;21.41;38.18;103005.94;7251239;19;153948;-55
2023/03/01 01:22:47;;;;;;;;;;;;;;;21.34;37.85;103002.50;7255737;19;153849;-55
2023/03/01 01:25:14;;;;;;;;;;;;;;;21.32;37.85;102993.47;7252415;19;156229;-55
2023/03/01 01:27:41;;;;;;;;;;;;;;;21.26;37.77;102999.03;7252472;19;152491;-55
2023/03/01 01:30:09;;;;;;;;;;;;;;;21.26;38.16;103000.97;7249601;19;154555;-55
2023/03/01 01:32:36;;;;;;;;;;;;;;;21.21;37.77;103003.75;7252301;19;153975;-55
2023/03/01 01:35:03;;;;;;;;;;;;;;;21.16;37.88;103001.75;7251875;19;153395;-55
2023/03/01 01:37:33;;;;;;;;;;;;;;;21.15;38.15;103000.03;7251829;19;154065;-56
2023/03/01 01:40:00;;;;;;;;;;;;;;;21.11;38.24;102992.34;7256580;19;155564;-56
2023/03/01 01:42:27;;;;;;;;;;;;;;;21.08;38.14;102990.03;7252337;19;154901;-55
2023/03/01 01:44:59;;;;;;;;;;;;;;;21.07;37.94;102994.00;7248206;19;154105;-55
2023/03/01 01:47:32;;;;;;;;;;;;;;;21.02;38.32;102989.16;7251487;19;153843;-55
2023/03/01 01:49:59;;;;;;;;;;;;;;;21.00;37.89;102985.75;7251174;19;152062;-55
2023/03/01 01:52:29;;;;;;;;;;;;;;;20.94;38.57;102985.97;7250566;19;154083;-55
2023/03/01 01:54:59;;;;;;;;;;;;;;;20.90;38.16;102981.94;7257085;19;154729;-55
2023/03/01 01:57:29;;;;;;;;;;;;;;;20.87;38.32;102977.72;7258536;19;154143;-55
2023/03/01 01:59:58;;;;;;;;;;;;;;;20.85;38.48;102980.78;7252683;19;155872;-54
2023/03/01 02:02:26;;;;;;;;;;;;;;;20.86;38.26;102976.00;7266142;19;154307;-55
2023/03/01 02:04:55;;;;;;;;;;;;;;;20.80;38.52;102961.03;7258073;19;155045;-55
2023/03/01 02:07:23;;;;;;;;;;;;;;;20.77;38.25;102955.09;7259191;19;153474;-56
2023/03/01 02:09:52;;;;;;;;;;;;;;;20.79;38.42;102962.19;7258883;19;154011;-55
2023/03/01 02:12:22;;;;;;;;;;;;;;;20.75;38.61;102955.38;7255660;19;153365;-55
2023/03/01 02:14:51;;;;;;;;;;;;;;;20.72;38.23;102947.47;7256536;19;153291;-56
2023/03/01 02:17:19;;;;;;;;;;;;;;;20.67;38.42;102949.38;7258479;19;153772;-55
2023/03/01 02:19:53;;;;;;;;;;;;;;;20.66;38.37;102953.28;7257109;19;153804;-55
2023/03/01 02:22:21;;;;;;;;;;;;;;;20.62;38.79;102952.13;7266185;19;153490;-55
2023/03/01 02:24:51;;;;;;;;;;;;;;;20.58;38.80;102946.13;7258408;19;153560;-55
2023/03/01 02:27:24;;;;;;;;;;;;;;;20.56;38.63;102939.09;7257780;19;152698;-56
2023/03/01 02:29:51;;;;;;;;;;;;;;;20.52;39.02;102943.53;7255219;19;155355;-55
2023/03/01 02:32:24;;;;;;;;;;;;;;;20.50;39.19;102942.94;7256523;19;157076;-55
2023/03/01 02:34:53;;;;;;;;;;;;;;;20.44;39.33;102944.84;7264325;19;154391;-55
2023/03/01 02:37:24;;;;;;;;;;;;;;;20.42;39.03;102938.63;7262865;19;153718;-55
2023/03/01 02:39:57;;;;;;;;;;;;;;;20.40;39.36;102929.59;7255756;19;152980;-55
2023/03/01 02:42:26;;;;;;;;;;;;;;;20.38;39.35;102934.66;7257808;19;153308;-55
2023/03/01 02:44:53;;;;;;;;;;;;;;;20.33;39.01;102934.56;7260483;19;152928;-55
2023/03/01 02:47:20;;;;;;;;;;;;;;;20.32;39.03;102938.47;7258408;19;153916;-54
2023/03/01 02:49:47;;;;;;;;;;;;;;;20.30;39.42;102935.09;7256255;19;153157;-55
2023/03/01 02:52:17;;;;;;;;;;;;;;;20.27;39.42;102927.13;7258060;19;154436;-55
2023/03/01 02:54:46;;;;;;;;;;;;;;;20.26;39.56;102926.28;7258433;19;151912;-53
2023/03/01 02:57:13;;;;;;;;;;;;;;;20.27;39.58;102918.72;7258025;19;154634;-55
2023/03/01 02:59:44;;;;;;;;;;;;;;;20.21;39.52;102917.81;7253375;19;152335;-56
2023/03/01 03:02:14;;;;;;;;;;;;;;;20.19;39.62;102910.75;7256778;19;151798;-55
2023/03/01 03:04:41;;;;;;;;;;;;;;;20.16;39.63;102909.31;7256962;19;153844;-55
2023/03/01 03:07:08;;;;;;;;;;;;;;;20.12;39.85;102910.94;7265347;19;156207;-55
2023/03/01 03:09:34;;;;;;;;;;;;;;;20.12;39.39;102908.13;7258073;19;152563;-55
2023/03/01 03:12:01;;;;;;;;;;;;;;;20.11;39.68;102908.38;7257251;19;156044;-54
2023/03/01 03:14:28;;;;;;;;;;;;;;;20.08;39.60;102904.13;7257851;19;154073;-55
2023/03/01 03:16:55;;;;;;;;;;;;;;;20.07;39.81;102901.59;7258447;19;153554;-55
2023/03/01 03:19:24;;;;;;;;;;;;;;;20.05;39.71;102901.00;7255222;19;153814;-55
2023/03/01 03:21:51;;;;;;;;;;;;;;;20.02;40.02;102893.94;7256987;19;155015;-56
2023/03/01 03:24:18;;;;;;;;;;;;;;;19.99;40.18;102898.09;7256632;19;153486;-55
2023/03/01 03:26:45;;;;;;;;;;;;;;;19.98;39.78;102904.00;7254452;19;153463;-55
2023/03/01 03:29:11;;;;;;;;;;;;;;;19.95;40.22;102891.31;7256582;19;153863;-56
2023/03/01 03:31:38;;;;;;;;;;;;;;;19.93;39.93;102899.16;7255594;19;153889;-55
2023/03/01 03:34:05;;;;;;;;;;;;;;;19.91;39.83;102892.09;7256268;19;154328;-54
2023/03/01 03:36:32;;;;;;;;;;;;;;;19.91;40.08;102890.13;7255679;19;153784;-55
2023/03/01 03:38:59;;;;;;;;;;;;;;;19.89;40.17;102883.09;7254106;19;153831;-54
2023/03/01 03:41:25;;;;;;;;;;;;;;;19.86;40.40;102884.44;7251561;19;153754;-54
2023/03/01 03:43:52;;;;;;;;;;;;;;;19.84;40.18;102881.06;7253230;19;154232;-55
2023/03/01 03:46:19;;;;;;;;;;;;;;;19.81;40.48;102887.16;7255100;19;153401;-54
2023/03/01 03:48:46;;;;;;;;;;;;;;;19.80;40.25;102882.69;7254955;19;153637;-54
2023/03/01 03:51:14;;;;;;;;;;;;;;;19.79;40.58;102883.78;7259680;19;153488;-55
2023/03/01 03:53:41;;;;;;;;;;;;;;;19.77;40.43;102876.72;7255670;19;153288;-55
2023/03/01 03:56:08;;;;;;;;;;;;;;;19.74;40.24;102880.03;7255480;19;155152;-55
2023/03/01 03:58:35;;;;;;;;;;;;;;;19.72;40.61;102874.66;7250618;19;156435;-54
2023/03/01 04:01:04;;;;;;;;;;;;;;;19.72;40.47;102876.63;7255579;19;153868;-56
2023/03/01 04:03:31;;;;;;;;;;;;;;;19.69;40.49;102865.94;7255097;19;153294;-56
2023/03/01 04:05:59;;;;;;;;;;;;;;;19.66;40.49;102867.31;7252883;19;154205;-55
2023/03/01 04:08:26;;;;;;;;;;;;;;;19.65;40.73;102864.75;7254266;19;153351;-56
2023/03/01 04:10:57;;;;;;;;;;;;;;;19.64;40.96;102868.66;7254917;19;152000;-55
2023/03/01 04:13:25;;;;;;;;;;;;;;;19.60;41.07;102871.13;7258524;19;153673;-56
2023/03/01 04:15:52;;;;;;;;;;;;;;;19.58;40.63;102862.09;7254388;19;153887;-55
2023/03/01 04:18:20;;;;;;;;;;;;;;;19.56;41.14;102855.06;7252777;19;155798;-55
2023/03/01 04:20:47;;;;;;;;;;;;;;;19.55;41.17;102859.81;7254223;19;152644;-55
2023/03/01 04:23:16;;;;;;;;;;;;;;;19.53;41.12;102848.03;7254484;19;153713;-55
2023/03/01 04:25:46;;;;;;;;;;;;;;;19.53;41.03;102853.63;7252341;19;152571;-55
2023/03/01 04:28:13;;;;;;;;;;;;;;;19.50;40.96;102849.38;7254704;19;153859;-55
2023/03/01 04:30:41;;;;;;;;;;;;;;;19.50;41.01;102846.56;7253135;19;154272;-56
2023/03/01 04:33:08;;;;;;;;;;;;;;;19.48;41.03;102847.94;7261496;19;153563;-55
2023/03/01 04:35:36;;;;;;;;;;;;;;;19.47;41.34;102846.22;7253934;19;153566;-55
2023/03/01 04:38:04;;;;;;;;;;;;;;;19.45;41.22;102849.28;7253242;19;153911;-55
2023/03/01 04:40:31;;;;;;;;;;;;;;;19.44;41.23;102846.75;7249270;19;153898;-55
2023/03/01 04:42:58;;;;;;;;;;;;;;;19.43;41.26;102839.41;7253541;19;154310;-55
2023/03/01 04:45:27;;;;;;;;;;;;;;;19.43;40.96;102843.09;7250400;19;154199;-56
2023/03/01 04:47:58;;;;;;;;;;;;;;;19.40;41.38;102837.09;7254482;19;154527;-56
2023/03/01 04:50:25;;;;;;;;;;;;;;;19.37;41.29;102841.25;7252740;19;151978;-56
2023/03/01 04:52:52;;;;;;;;;;;;;;;19.36;41.41;102842.38;7253183;19;153833;-55
2023/03/01 04:55:19;;;;;;;;;;;;;;;19.35;41.22;102837.84;7264924;19;153922;-56
2023/03/01 04:57:46;;;;;;;;;;;;;;;19.33;41.13;102840.06;7252582;19;154358;-56
2023/03/01 05:02:43;;;;;;;;;;;;;;;19.31;41.48;102830.22;7253596;19;154251;-56
2023/03/01 05:05:10;;;;;;;;;;;;;;;19.29;41.37;102829.63;7252191;19;152894;-55
2023/03/01 05:07:37;;;;;;;;;;;;;;;19.29;41.17;102829.63;7255411;19;153254;-56
2023/03/01 05:10:04;;;;;;;;;;;;;;;19.26;41.47;102822.56;7253577;19;152194;-55
2023/03/01 05:12:31;;;;;;;;;;;;;;;19.27;41.16;102826.22;7251515;19;154657;-57
2023/03/01 05:15:00;;;;;;;;;;;;;;;19.25;41.33;102826.50;7249144;19;154664;-60
2023/03/01 05:17:26;;;;;;;;;;;;;;;19.26;41.51;102838.56;7258596;19;153935;-54
2023/03/01 05:19:55;;;;;;;;;;;;;;;19.22;41.31;102824.19;7252940;19;152828;-56
2023/03/01 05:22:24;;;;;;;;;;;;;;;19.21;41.26;102828.09;7252036;19;153909;-55
2023/03/01 05:24:52;;;;;;;;;;;;;;;19.19;41.63;102827.50;7251630;19;154199;-55
2023/03/01 05:27:21;;;;;;;;;;;;;;;19.19;41.12;102829.44;7253017;19;153892;-55
2023/03/01 05:29:51;;;;;;;;;;;;;;;19.16;41.24;102828.03;7257309;19;153734;-55
2023/03/01 05:32:18;;;;;;;;;;;;;;;19.15;41.45;102817.06;7258065;19;154145;-55
2023/03/01 05:34:47;;;;;;;;;;;;;;;19.13;41.28;102820.09;7260525;19;153676;-55
2023/03/01 05:37:14;;;;;;;;;;;;;;;19.13;41.31;102816.44;7260320;19;153162;-55
2023/03/01 05:39:41;;;;;;;;;;;;;;;19.12;41.22;102814.75;7265448;19;153183;-55
2023/03/01 05:42:11;;;;;;;;;;;;;;;19.10;41.52;102807.47;7257844;19;154346;-55
2023/03/01 05:44:38;;;;;;;;;;;;;;;19.08;41.69;102809.66;7255371;19;153859;-56
2023/03/01 05:47:04;;;;;;;;;;;;;;;19.07;41.59;102809.94;7259335;19;154486;-55
2023/03/01 05:49:32;;;;;;;;;;;;;;;19.05;41.40;102804.56;7259893;19;153484;-55
2023/03/01 05:51:58;;;;;;;;;;;;;;;19.04;41.66;102811.25;7258739;19;154932;-56
2023/03/01 05:54:25;;;;;;;;;;;;;;;19.02;41.39;102810.69;7260826;19;153391;-55
2023/03/01 05:56:52;;;;;;;;;;;;;;;19.02;41.74;102813.47;7259840;19;154589;-54
2023/03/01 05:59:19;;;;;;;;;;;;;;;19.01;41.75;102806.19;7253346;19;153756;-56
2023/03/01 06:01:46;;;;;;;;;;;;;;;18.98;41.56;102806.69;7264270;19;153410;-54
2023/03/01 06:04:15;;;;;;;;;;;;;;;18.97;41.68;102804.97;7256434;19;154048;-56
2023/03/01 06:06:42;;;;;;;;;;;;;;;18.95;41.77;102811.94;7257721;19;154568;-55
2023/03/01 06:09:09;;;;;;;;;;;;;;;18.95;41.87;102811.94;7258038;19;153264;-55
2023/03/01 06:11:36;;;;;;;;;;;;;;;18.93;42.17;102808.53;7258695;19;152498;-55
2023/03/01 06:14:04;;;;;;;;;;;;;;;18.91;42.12;102811.59;7253709;19;153871;-55
2023/03/01 06:16:30;;;;;;;;;;;;;;;18.91;41.94;102807.94;7258479;19;154269;-55
2023/03/01 06:18:58;;;;;;;;;;;;;;;18.89;41.94;102810.16;7256848;19;153395;-55
2023/03/01 06:21:27;;;;;;;;;;;;;;;18.88;42.16;102811.25;7256158;19;153548;-55
2023/03/01 06:23:54;;;;;;;;;;;;;;;18.86;42.15;102811.50;7264611;19;153648;-55
2023/03/01 06:26:20;;;;;;;;;;;;;;;18.85;41.92;102811.75;7258796;19;152838;-55
2023/03/01 06:28:47;;;;;;;;;;;;;;;18.84;41.93;102819.31;7255579;19;154610;-55
2023/03/01 06:31:14;;;;;;;;;;;;;;;18.81;42.13;102813.34;7261185;19;154318;-57
2023/03/01 06:33:41;;;;;;;;;;;;;;;18.81;42.29;102819.78;7257999;19;154463;-55
2023/03/01 06:36:09;;;;;;;;;;;;;;;18.79;42.00;102821.16;7258610;19;154169;-55
2023/03/01 06:38:36;;;;;;;;;;;;;;;18.77;42.28;102827.00;7256519;19;154558;-55
2023/03/01 06:41:04;;;;;;;;;;;;;;;18.75;42.20;102832.00;7256431;19;154887;-54
2023/03/01 06:43:30;;;;;;;;;;;;;;;18.75;42.05;102831.16;7261023;19;153792;-55
2023/03/01 06:45:57;;;;;;;;;;;;;;;18.73;42.15;102822.16;7258871;19;153602;-56
2023/03/01 06:48:24;;;;;;;;;;;;;;;18.72;42.25;102835.28;7255862;19;157304;-56
2023/03/01 06:50:51;;;;;;;;;;;;;;;18.74;42.55;102824.72;7255359;19;153365;-55
2023/03/01 06:53:20;;;;;;;;;;;;;;;18.74;42.13;102821.06;7259118;19;153088;-55
2023/03/01 06:55:49;;;;;;;;;;;;;;;18.71;42.53;102830.81;7259347;19;155415;-56
2023/03/01 06:58:16;;;;;;;;;;;;;;;18.77;42.24;102829.78;7256275;19;154791;-56
2023/03/01 07:00:44;;;;;;;;;;;;;;;18.82;42.17;102829.91;7256745;19;153082;-56
2023/03/01 07:03:13;;;;;;;;;;;;;;;18.90;42.81;102831.44;7257062;19;154219;-56
2023/03/01 07:05:40;;;;;;;;;;;;;;;18.90;42.22;102826.69;7264566;19;154710;-55
2023/03/01 07:08:06;;;;;;;;;;;;;;;18.95;42.51;102834.34;7258280;19;152829;-55
2023/03/01 07:10:33;;;;;;;;;;;;;;;19.02;42.84;102832.25;7256578;19;154861;-56
2023/03/01 07:13:00;;;;;;;;;;;;;;;19.07;42.49;102836.00;7257880;19;152473;-55
2023/03/01 07:15:27;;;;;;;;;;;;;;;19.16;42.98;102832.75;7255758;19;153478;-55
2023/03/01 07:17:54;;;;;;;;;;;;;;;19.16;43.09;102838.38;7257063;19;154093;-55
2023/03/01 07:20:25;;;;;;;;;;;;;;;19.09;42.44;102832.91;7255203;19;154532;-55
2023/03/01 07:22:53;;;;;;;;;;;;;;;19.22;41.41;102842.94;7254804;19;153911;-56
2023/03/01 07:25:20;;;;;;;;;;;;;;;19.28;41.08;102840.00;7254258;19;154831;-55
2023/03/01 07:27:50;;;;;;;;;;;;;;;19.32;40.81;102838.38;7264620;19;153247;-56
2023/03/01 07:30:17;;;;;;;;;;;;;;;19.36;40.74;102833.94;7252044;19;153540;-56
2023/03/01 07:32:45;;;;;;;;;;;;;;;19.41;40.47;102839.66;7256393;19;153330;-56
2023/03/01 07:35:12;;;;;;;;;;;;;;;19.45;40.36;102845.63;7255504;19;152754;-55
2023/03/01 07:37:39;;;;;;;;;;;;;;;19.47;40.15;102843.44;7256200;19;154513;-55
2023/03/01 07:40:06;;;;;;;;;;;;;;;19.54;40.22;102839.34;7254460;19;152906;-56
2023/03/01 07:42:33;;;;;;;;;;;;;;;19.59;40.40;102841.38;7255094;19;152651;-56
2023/03/01 07:45:00;;;;;;;;;;;;;;;19.62;39.86;102826.84;7251820;19;155533;-55
2023/03/01 07:47:27;;;;;;;;;;;;;;;19.65;39.94;102834.75;7256293;19;153274;-57
2023/03/01 07:49:54;;;;;;;;;;;;;;;19.71;39.59;102824.47;7261424;19;154725;-56
2023/03/01 07:52:21;;;;;;;;;;;;;;;19.75;39.50;102829.31;7253533;19;152282;-56
2023/03/01 07:54:48;;;;;;;;;;;;;;;19.79;40.04;102824.88;7254082;19;155937;-56
2023/03/01 07:57:17;;;;;;;;;;;;;;;19.82;39.49;102820.69;7246931;19;156455;-56
2023/03/01 07:59:44;;;;;;;;;;;;;;;19.85;39.33;102820.19;7252029;19;153722;-56
2023/03/01 08:02:11;;;;;;;;;;;;;;;19.88;39.35;102817.72;7253275;19;153817;-56
2023/03/01 08:04:38;;;;;;;;;;;;;;;19.90;39.39;102823.91;7255296;19;152228;-56
2023/03/01 08:07:06;;;;;;;;;;;;;;;19.95;39.34;102831.53;7255821;19;153769;-56
2023/03/01 08:09:38;;;;;;;;;;;;;;;19.99;38.83;102836.38;7257066;19;153906;-56
2023/03/01 08:12:05;;;;;;;;;;;;;;;20.03;39.07;102827.47;7262481;19;154515;-56
2023/03/01 08:14:32;;;;;;;;;;;;;;;20.06;38.84;102824.97;7255334;19;153604;-56
2023/03/01 08:16:59;;;;;;;;;;;;;;;20.10;38.65;102828.97;7255513;19;154942;-56
2023/03/01 08:19:27;;;;;;;;;;;;;;;20.15;38.87;102826.22;7254213;19;152960;-56
2023/03/01 08:21:55;;;;;;;;;;;;;;;20.19;38.41;102821.78;7254716;19;153677;-56
2023/03/01 08:24:22;;;;;;;;;;;;;;;20.24;38.51;102809.78;7253664;19;154922;-56
2023/03/01 08:26:49;;;;;;;;;;;;;;;20.28;38.23;102813.75;7255034;19;153572;-56
2023/03/01 08:29:16;;;;;;;;;;;;;;;20.31;38.41;102807.63;7254245;19;153146;-56
2023/03/01 08:31:44;;;;;;;;;;;;;;;20.34;38.29;102801.53;7254070;19;154779;-57
2023/03/01 08:34:12;;;;;;;;;;;;;;;20.39;38.11;102807.19;7260741;19;154163;-56
2023/03/01 08:36:41;;;;;;;;;;;;;;;20.49;38.45;102810.09;7252544;19;156202;-56
2023/03/01 08:39:10;;;;;;;;;;;;;;;20.51;38.60;102812.66;7255432;19;153758;-56
2023/03/01 08:41:40;;;;;;;;;;;;;;;20.57;38.25;102806.00;7254738;19;153252;-56
2023/03/01 08:44:07;;;;;;;;;;;;;;;20.59;38.46;102809.38;7249140;19;154524;-56
2023/03/01 08:46:36;;;;;;;;;;;;;;;20.60;38.03;102800.69;7252899;19;154828;-56
2023/03/01 08:49:03;;;;;;;;;;;;;;;20.63;37.78;102800.16;7254795;19;153392;-56
2023/03/01 08:51:32;;;;;;;;;;;;;;;20.66;37.55;102802.47;7251351;19;153623;-57
2023/03/01 08:53:59;;;;;;;;;;;;;;;20.69;37.39;102799.13;7261840;19;153321;-56
2023/03/01 08:56:26;;;;;;;;;;;;;;;20.71;37.54;102796.91;7252242;19;152933;-56
2023/03/01 08:58:53;;;;;;;;;;;;;;;20.76;37.23;102793.25;7252009;19;153467;-56
2023/03/01 09:01:20;;;;;;;;;;;;;;;20.78;37.02;102797.53;7253511;19;154905;-56
2023/03/01 09:03:47;;;;;;;;;;;;;;;20.82;37.12;102800.66;7251241;19;153894;-57
2023/03/01 09:06:15;;;;;;;;;;;;;;;20.83;36.79;102799.53;7253946;19;153223;-56
2023/03/01 09:08:43;;;;;;;;;;;;;;;20.84;37.11;102790.84;7253624;19;152408;-56
2023/03/01 09:11:11;;;;;;;;;;;;;;;20.89;37.12;102789.22;7252651;19;154772;-56
2023/03/01 09:13:39;;;;;;;;;;;;;;;20.90;36.88;102786.09;7249018;19;152230;-57
2023/03/01 09:16:11;;;;;;;;;;;;;;;20.94;37.13;102792.06;7260816;19;153731;-56
2023/03/01 09:18:38;;;;;;;;;;;;;;;20.94;36.72;102792.88;7254381;19;153230;-57
2023/03/01 09:21:07;;;;;;;;;;;;;;;20.94;36.42;102780.81;7256404;19;154305;-60
2023/03/01 09:23:36;;;;;;;;;;;;;;;20.95;36.82;102777.72;7247345;19;154058;-56
2023/03/01 09:26:03;;;;;;;;;;;;;;;20.96;36.49;102771.00;7250714;19;154256;-56
2023/03/01 09:28:32;;;;;;;;;;;;;;;20.95;36.23;102774.06;7249895;19;153892;-56
2023/03/01 09:31:02;;;;;;;;;;;;;;;20.94;36.45;102773.22;7252037;19;156663;-56
2023/03/01 09:33:30;;;;;;;;;;;;;;;20.94;36.61;102763.97;7252194;19;153082;-56
2023/03/01 09:35:57;;;;;;;;;;;;;;;20.92;36.28;102774.63;7252930;19;156405;-56
2023/03/01 09:38:25;;;;;;;;;;;;;;;20.86;36.24;102766.13;7258719;19;154932;-57
2023/03/01 09:40:53;;;;;;;;;;;;;;;20.85;36.18;102766.38;7252616;19;153644;-56
2023/03/01 09:43:26;;;;;;;;;;;;;;;20.86;35.99;102768.09;7249391;19;153802;-57
2023/03/01 09:45:55;;;;;;;;;;;;;;;20.81;36.33;102766.09;7255331;19;154014;-57
2023/03/01 09:48:24;;;;;;;;;;;;;;;20.78;36.45;102761.00;7251296;19;152596;-56
2023/03/01 09:50:51;;;;;;;;;;;;;;;20.76;36.48;102762.38;7250300;19;155792;-57
2023/03/01 09:53:20;;;;;;;;;;;;;;;20.71;36.06;102751.97;7252956;19;153530;-56
2023/03/01 09:55:50;;;;;;;;;;;;;;;20.71;36.43;102749.16;7255558;19;153523;-56
2023/03/01 09:58:20;;;;;;;;;;;;;;;20.70;36.37;102743.78;7249398;19;154083;-56
2023/03/01 10:00:49;;;;;;;;;;;;;;;20.67;36.23;102753.56;7257833;19;154149;-56
2023/03/01 10:03:16;;;;;;;;;;;;;;;20.65;36.03;102747.41;7250023;19;154657;-57
2023/03/01 10:05:49;;;;;;;;;;;;;;;20.66;36.25;102753.88;7252379;19;153357;-56
2023/03/01 10:08:20;;;;;;;;;;;;;;;20.64;36.01;102751.31;7252064;19;153870;-56
2023/03/01 10:10:50;;;;;;;;;;;;;;;20.65;36.09;102747.41;7250212;19;154736;-57
2023/03/01 10:13:17;;;;;;;;;;;;;;;20.63;36.34;102744.00;7250376;19;152400;-56
2023/03/01 10:15:48;;;;;;;;;;;;;;;20.60;36.53;102738.91;7253972;19;153859;-56
2023/03/01 10:18:19;;;;;;;;;;;;;;;20.59;36.52;102737.22;7258921;19;154125;-56
2023/03/01 10:20:52;;;;;;;;;;;;;;;20.56;36.44;102734.09;7260300;19;152491;-56
2023/03/01 10:23:19;;;;;;;;;;;;;;;20.52;36.52;102745.00;7265010;19;154162;-56
2023/03/01 10:25:52;;;;;;;;;;;;;;;20.49;36.57;102745.53;7259316;19;154273;-56
2023/03/01 10:28:25;;;;;;;;;;;;;;;20.48;36.59;102735.44;7258633;19;152921;-56
2023/03/01 10:30:52;;;;;;;;;;;;;;;20.45;36.54;102747.16;7259132;19;154258;-57
2023/03/01 10:33:23;;;;;;;;;;;;;;;20.42;36.37;102742.94;7258090;19;154178;-56
2023/03/01 10:35:51;;;;;;;;;;;;;;;20.39;36.42;102754.72;7259945;19;154572;-56
2023/03/01 10:38:20;;;;;;;;;;;;;;;20.36;36.45;102738.38;7257281;19;152158;-56
2023/03/01 10:40:50;;;;;;;;;;;;;;;20.37;36.57;102736.41;7259378;19;153430;-56
2023/03/01 10:43:17;;;;;;;;;;;;;;;20.33;36.55;102733.28;7255661;19;154218;-56
2023/03/01 10:45:44;;;;;;;;;;;;;;;20.28;36.77;102733.19;7264085;19;153263;-56
2023/03/01 10:48:14;;;;;;;;;;;;;;;20.25;36.56;102735.69;7256629;19;154356;-56
2023/03/01 10:50:42;;;;;;;;;;;;;;;20.23;36.52;102732.28;7257821;19;153903;-56
2023/03/01 10:53:12;;;;;;;;;;;;;;;20.21;36.63;102734.53;7257852;19;153187;-56
2023/03/01 10:55:39;;;;;;;;;;;;;;;20.18;36.72;102723.81;7258540;19;154005;-56
2023/03/01 10:58:07;;;;;;;;;;;;;;;20.14;36.77;102722.63;7254048;19;152857;-56
2023/03/01 11:00:45;;;;;;;;;;;;;;;20.13;36.78;102716.16;7255586;19;152195;-56
2023/03/01 11:03:14;;;;;;;;;;;;;;;20.08;36.52;102721.72;7257044;19;152175;-56
2023/03/01 11:05:44;;;;;;;;;;;;;;;20.05;36.86;102718.59;7263669;19;157162;-57
2023/03/01 11:08:11;;;;;;;;;;;;;;;20.05;36.79;102704.56;7257533;19;154353;-56
2023/03/01 11:10:38;;;;;;;;;;;;;;;20.02;36.86;102703.16;7257869;19;154242;-56
2023/03/01 11:13:07;;;;;;;;;;;;;;;19.99;36.57;102695.25;7260215;19;154078;-56
2023/03/01 11:15:34;;;;;;;;;;;;;;;19.94;37.00;102700.81;7256834;19;153238;-56
2023/03/01 11:18:02;;;;;;;;;;;;;;;19.93;36.69;102696.31;7258365;19;153208;-56
2023/03/01 11:20:40;;;;;;;;;;;;;;;19.92;36.68;102689.84;7256666;19;153455;-56
2023/03/01 11:23:10;;;;;;;;;;;;;;;19.91;36.99;102695.69;7257558;19;153525;-56
2023/03/01 11:25:39;;;;;;;;;;;;;;;19.91;36.74;102684.47;7255766;19;153752;-56
2023/03/01 11:28:10;;;;;;;;;;;;;;;19.92;37.04;102691.78;7264925;19;153642;-56
2023/03/01 11:30:41;;;;;;;;;;;;;;;19.87;36.79;102684.16;7253431;19;153559;-56
2023/03/01 11:33:15;;;;;;;;;;;;;;;19.83;36.70;102679.34;7256402;19;153265;-56
2023/03/01 11:35:45;;;;;;;;;;;;;;;19.83;36.82;102668.13;7258320;19;153406;-56
2023/03/01 11:38:16;;;;;;;;;;;;;;;19.82;36.96;102667.28;7254067;19;154475;-56
2023/03/01 11:40:47;;;;;;;;;;;;;;;19.79;37.28;102662.19;7253157;19;152486;-55
2023/03/01 11:43:19;;;;;;;;;;;;;;;19.76;37.30;102659.06;7253687;19;154792;-55
2023/03/01 11:45:49;;;;;;;;;;;;;;;19.72;37.32;102658.72;7254853;19;152848;-55
2023/03/01 11:48:19;;;;;;;;;;;;;;;19.70;37.21;102658.16;7255597;19;153508;-55
2023/03/01 11:50:47;;;;;;;;;;;;;;;19.67;37.04;102657.84;7261735;19;153999;-55
2023/03/01 11:53:17;;;;;;;;;;;;;;;19.64;37.06;102650.78;7257016;19;154397;-55
2023/03/01 11:55:47;;;;;;;;;;;;;;;19.62;37.21;102644.59;7257470;19;156444;-55
2023/03/01 11:58:23;;;;;;;;;;;;;;;19.60;37.17;102643.16;7255013;19;154236;-55
2023/03/01 12:00:50;;;;;;;;;;;;;;;19.62;37.50;102635.34;7256332;19;153087;-55
2023/03/01 12:03:18;;;;;;;;;;;;;;;19.55;37.55;102632.72;7254592;19;153304;-55
2023/03/01 12:05:49;;;;;;;;;;;;;;;19.54;37.62;102640.28;7254086;19;154061;-56
2023/03/01 12:08:19;;;;;;;;;;;;;;;19.53;37.67;102635.75;7209187;19;154457;-55
2023/03/01 12:10:49;;;;;;;;;;;;;;;19.50;37.49;102627.88;7233030;19;153876;-55
2023/03/01 12:13:18;;;;;;;;;;;;;;;19.47;37.37;102624.75;7260230;19;153300;-55
2023/03/01 12:15:45;;;;;;;;;;;;;;;19.47;37.55;102616.34;7247798;19;154072;-55
2023/03/01 12:18:15;;;;;;;;;;;;;;;19.45;37.53;102604.53;7252179;19;154492;-56
2023/03/01 12:20:52;;;;;;;;;;;;;;;19.44;37.68;102606.50;7251831;19;152799;-55
2023/03/01 12:23:23;;;;;;;;;;;;;;;19.42;37.48;102607.84;7252036;19;154247;-55
2023/03/01 12:25:53;;;;;;;;;;;;;;;19.41;37.89;102603.34;7254130;19;153903;-56
2023/03/01 12:28:23;;;;;;;;;;;;;;;19.39;37.88;102594.38;7251774;19;152881;-56
2023/03/01 12:30:54;;;;;;;;;;;;;;;19.37;37.99;102591.81;7250929;19;153595;-56
2023/03/01 12:33:24;;;;;;;;;;;;;;;19.34;37.98;102589.53;7251505;19;153051;-56
2023/03/01 12:35:54;;;;;;;;;;;;;;;19.34;38.01;102585.88;7261330;19;153719;-56